createdAt,value
2023-04-04T00:02:01.639Z,9.00
2023-04-04T00:07:03.345Z,9.50
2023-04-04T00:12:05.986Z,11.90
2023-04-04T00:17:07.666Z,7.50
2023-04-04T00:32:12.766Z,6.80
2023-04-04T00:37:14.673Z,10.80
2023-04-04T00:52:19.949Z,9.90
2023-04-04T00:57:22.534Z,11.20
2023-04-04T01:02:25.620Z,8.30
2023-04-04T01:07:27.648Z,11.70
2023-04-04T01:12:30.222Z,7.70
2023-04-04T01:17:32.460Z,9.40
2023-04-04T01:22:36.008Z,9.40
2023-04-04T01:27:38.810Z,10.70
2023-04-04T01:32:59.676Z,10.50
2023-04-04T01:38:52.127Z,9.40
2023-04-04T01:43:56.309Z,11.50
2023-04-04T01:48:58.909Z,11.30
2023-04-04T01:54:04.898Z,12.10
2023-04-04T01:59:07.380Z,15.50
2023-04-04T02:04:11.349Z,8.90
2023-04-04T02:09:13.906Z,12.00
2023-04-04T02:14:16.368Z,13.90
2023-04-04T02:19:18.846Z,10.00
2023-04-04T02:24:20.558Z,15.20
2023-04-04T02:34:25.878Z,7.80
2023-04-04T02:39:27.969Z,12.10
2023-04-04T02:44:30.418Z,12.70
2023-04-04T02:49:32.958Z,13.90
2023-04-04T02:54:35.379Z,11.90
2023-04-04T02:59:38.498Z,13.30
2023-04-04T03:04:40.657Z,14.20
2023-04-04T03:09:45.193Z,16.40
2023-04-04T03:14:47.600Z,9.70
2023-04-04T03:19:49.463Z,11.10
2023-04-04T03:24:51.224Z,9.00
2023-04-04T03:29:54.929Z,10.90
2023-04-04T03:34:56.912Z,11.20
2023-04-04T03:45:00.854Z,11.50
2023-04-04T03:50:06.731Z,7.40
2023-04-04T03:55:09.994Z,10.40
2023-04-04T04:00:12.434Z,12.60
2023-04-04T20:09:34.927Z,26.30
2023-04-04T20:14:37.163Z,25.90
2023-04-04T20:19:38.874Z,40.40
2023-04-04T20:24:42.609Z,38.80
2023-04-04T20:29:44.616Z,35.10
2023-04-04T20:34:49.313Z,45.60
2023-04-04T20:39:55.806Z,52.90
2023-04-04T20:45:31.913Z,60.10
2023-04-04T20:50:33.558Z,83.50
2023-04-04T21:00:42.363Z,86.50
2023-04-04T21:05:44.808Z,101.70
2023-04-04T21:10:53.004Z,113.00
2023-04-04T21:16:00.723Z,92.30
2023-04-04T21:21:11.909Z,71.50
2023-04-04T21:26:37.104Z,62.50
2023-04-04T21:31:41.241Z,57.40
2023-04-04T21:36:45.083Z,49.00
2023-04-04T21:41:50.427Z,52.60
2023-04-04T21:46:55.243Z,57.20
2023-04-04T21:51:56.953Z,68.10
2023-04-04T21:57:00.913Z,79.30
2023-04-04T22:02:02.777Z,92.80
2023-04-04T22:07:04.494Z,176.60
2023-04-04T22:12:16.014Z,186.40
2023-04-04T22:17:24.004Z,152.80
2023-04-04T22:22:30.400Z,188.60
2023-04-04T22:27:33.225Z,155.30
2023-04-04T22:32:35.255Z,149.60
2023-04-04T22:37:38.630Z,148.30
2023-04-04T22:42:40.632Z,155.40
2023-04-04T22:47:47.364Z,166.60
2023-04-04T22:52:49.744Z,211.80
2023-04-04T22:57:51.567Z,207.50
2023-04-04T23:02:53.272Z,165.60
2023-04-04T23:08:01.397Z,186.70
2023-04-04T23:13:08.564Z,161.70
2023-04-04T23:18:11.467Z,162.80
2023-04-04T23:23:13.652Z,139.90
2023-04-04T23:28:16.488Z,137.50
2023-04-04T23:33:18.229Z,111.10
2023-04-04T23:43:22.593Z,111.80
2023-04-04T23:48:25.422Z,122.40
2023-04-04T23:53:29.667Z,122.50
2023-04-04T23:58:31.357Z,135.80
